sensor_id;sensor_type;location;lat;lon;timestamp;temperature;humidity
16625;DHT22;8426;48.496;9.098;2023-07-28T07:11:06;17.90;99.90
16625;DHT22;8426;48.496;9.098;2023-07-28T07:16:13;18.20;99.90
16625;DHT22;8426;48.496;9.098;2023-07-28T07:21:26;18.60;99.90
16625;DHT22;8426;48.496;9.098;2023-07-28T07:26:31;18.90;99.90
16625;DHT22;8426;48.496;9.098;2023-07-28T07:31:39;19.20;99.90
16625;DHT22;8426;48.496;9.098;2023-07-28T07:36:42;19.50;99.90
16625;DHT22;8426;48.496;9.098;2023-07-28T07:41:47;19.50;99.90
16625;DHT22;8426;48.496;9.098;2023-07-28T07:46:51;19.50;99.90
16625;DHT22;8426;48.496;9.098;2023-07-28T07:51:55;19.70;99.90
16625;DHT22;8426;48.496;9.098;2023-07-28T07:57:06;20.00;99.90
16625;DHT22;8426;48.496;9.098;2023-07-28T08:02:11;20.40;99.90
16625;DHT22;8426;48.496;9.098;2023-07-28T08:07:21;20.80;99.90
16625;DHT22;8426;48.496;9.098;2023-07-28T08:12:27;21.30;99.90
16625;DHT22;8426;48.496;9.098;2023-07-28T08:17:30;22.70;99.90
16625;DHT22;8426;48.496;9.098;2023-07-28T08:22:39;23.40;99.90
16625;DHT22;8426;48.496;9.098;2023-07-28T08:27:44;24.30;99.90
16625;DHT22;8426;48.496;9.098;2023-07-28T08:32:50;24.70;99.90
16625;DHT22;8426;48.496;9.098;2023-07-28T08:37:56;24.60;99.90
16625;DHT22;8426;48.496;9.098;2023-07-28T08:43:01;25.30;99.90
16625;DHT22;8426;48.496;9.098;2023-07-28T08:48:17;25.60;99.90
16625;DHT22;8426;48.496;9.098;2023-07-28T08:53:25;27.50;99.90
16625;DHT22;8426;48.496;9.098;2023-07-28T08:58:30;29.20;99.90
16625;DHT22;8426;48.496;9.098;2023-07-28T09:03:33;29.50;99.90
16625;DHT22;8426;48.496;9.098;2023-07-28T09:08:43;30.90;99.90
16625;DHT22;8426;48.496;9.098;2023-07-28T09:13:48;29.00;99.90
16625;DHT22;8426;48.496;9.098;2023-07-28T09:19:04;27.60;99.90
16625;DHT22;8426;48.496;9.098;2023-07-28T09:24:09;27.80;99.90
16625;DHT22;8426;48.496;9.098;2023-07-28T09:29:15;29.10;99.90
16625;DHT22;8426;48.496;9.098;2023-07-28T09:34:24;30.30;99.90
16625;DHT22;8426;48.496;9.098;2023-07-28T09:39:28;29.00;99.90
16625;DHT22;8426;48.496;9.098;2023-07-28T09:44:33;29.80;99.90
16625;DHT22;8426;48.496;9.098;2023-07-28T09:49:40;29.10;99.90
16625;DHT22;8426;48.496;9.098;2023-07-28T09:54:45;29.90;99.90
16625;DHT22;8426;48.496;9.098;2023-07-28T09:59:57;31.40;99.90
16625;DHT22;8426;48.496;9.098;2023-07-28T10:05:01;31.90;99.90
16625;DHT22;8426;48.496;9.098;2023-07-28T10:10:06;29.90;99.90
16625;DHT22;8426;48.496;9.098;2023-07-28T10:15:14;29.30;99.90
16625;DHT22;8426;48.496;9.098;2023-07-28T10:20:33;29.60;99.90
16625;DHT22;8426;48.496;9.098;2023-07-28T10:25:38;27.90;99.90
16625;DHT22;8426;48.496;9.098;2023-07-28T10:30:54;26.90;99.90
16625;DHT22;8426;48.496;9.098;2023-07-28T10:35:58;26.50;99.90
16625;DHT22;8426;48.496;9.098;2023-07-28T10:41:10;26.20;99.90
16625;DHT22;8426;48.496;9.098;2023-07-28T10:46:16;26.90;99.90
16625;DHT22;8426;48.496;9.098;2023-07-28T10:51:21;27.70;99.90
16625;DHT22;8426;48.496;9.098;2023-07-28T10:56:27;28.10;99.90
16625;DHT22;8426;48.496;9.098;2023-07-28T11:01:32;28.50;99.90
16625;DHT22;8426;48.496;9.098;2023-07-28T11:06:38;29.20;99.90
16625;DHT22;8426;48.496;9.098;2023-07-28T11:11:43;29.20;99.90
16625;DHT22;8426;48.496;9.098;2023-07-28T11:16:51;28.60;99.90
16625;DHT22;8426;48.496;9.098;2023-07-28T11:21:55;27.40;99.90
16625;DHT22;8426;48.496;9.098;2023-07-28T11:27:01;25.20;99.90
16625;DHT22;8426;48.496;9.098;2023-07-28T11:32:06;23.80;99.90
16625;DHT22;8426;48.496;9.098;2023-07-28T11:37:12;23.00;99.90
16625;DHT22;8426;48.496;9.098;2023-07-28T11:42:15;22.50;99.90
16625;DHT22;8426;48.496;9.098;2023-07-28T11:47:22;22.40;99.90
16625;DHT22;8426;48.496;9.098;2023-07-28T11:52:30;22.20;99.90
16625;DHT22;8426;48.496;9.098;2023-07-28T11:57:33;22.60;99.90
16625;DHT22;8426;48.496;9.098;2023-07-28T12:02:38;23.50;99.90
16625;DHT22;8426;48.496;9.098;2023-07-28T12:07:47;24.00;99.90
16625;DHT22;8426;48.496;9.098;2023-07-28T12:12:51;24.90;99.90
16625;DHT22;8426;48.496;9.098;2023-07-28T12:23:19;26.30;99.90
16625;DHT22;8426;48.496;9.098;2023-07-28T12:28:26;26.80;99.90
16625;DHT22;8426;48.496;9.098;2023-07-28T12:33:30;26.40;99.90
16625;DHT22;8426;48.496;9.098;2023-07-28T12:38:36;26.10;99.90
16625;DHT22;8426;48.496;9.098;2023-07-28T12:43:44;25.60;99.90
16625;DHT22;8426;48.496;9.098;2023-07-28T12:48:51;25.40;99.90
16625;DHT22;8426;48.496;9.098;2023-07-28T12:53:54;25.60;99.90
16625;DHT22;8426;48.496;9.098;2023-07-28T12:58:58;25.20;99.90
16625;DHT22;8426;48.496;9.098;2023-07-28T13:04:05;25.20;99.90
16625;DHT22;8426;48.496;9.098;2023-07-28T13:09:09;25.30;99.90
16625;DHT22;8426;48.496;9.098;2023-07-28T13:14:15;24.90;99.90
16625;DHT22;8426;48.496;9.098;2023-07-28T13:19:20;24.20;99.90
16625;DHT22;8426;48.496;9.098;2023-07-28T13:24:23;23.70;99.90
16625;DHT22;8426;48.496;9.098;2023-07-28T13:29:26;23.70;99.90
16625;DHT22;8426;48.496;9.098;2023-07-28T13:34:31;23.50;99.90
16625;DHT22;8426;48.496;9.098;2023-07-28T13:39:35;23.30;99.90
16625;DHT22;8426;48.496;9.098;2023-07-28T13:44:38;22.50;99.90
16625;DHT22;8426;48.496;9.098;2023-07-28T13:49:49;22.00;99.90
16625;DHT22;8426;48.496;9.098;2023-07-28T13:54:53;21.60;99.90
16625;DHT22;8426;48.496;9.098;2023-07-28T13:59:59;21.50;99.90
16625;DHT22;8426;48.496;9.098;2023-07-28T14:05:04;21.70;99.90
16625;DHT22;8426;48.496;9.098;2023-07-28T14:10:08;21.60;99.90
16625;DHT22;8426;48.496;9.098;2023-07-28T14:15:12;21.70;99.90
16625;DHT22;8426;48.496;9.098;2023-07-28T14:20:16;21.90;99.90
16625;DHT22;8426;48.496;9.098;2023-07-28T14:25:20;22.00;99.90
16625;DHT22;8426;48.496;9.098;2023-07-28T14:30:23;22.10;99.90
16625;DHT22;8426;48.496;9.098;2023-07-28T14:35:27;22.50;99.90
16625;DHT22;8426;48.496;9.098;2023-07-28T14:40:32;22.80;99.90
16625;DHT22;8426;48.496;9.098;2023-07-28T14:45:35;23.20;99.90
16625;DHT22;8426;48.496;9.098;2023-07-28T14:50:40;23.80;99.90
16625;DHT22;8426;48.496;9.098;2023-07-28T14:55:44;24.30;99.90
16625;DHT22;8426;48.496;9.098;2023-07-28T15:00:47;24.10;99.90
16625;DHT22;8426;48.496;9.098;2023-07-28T15:05:51;24.30;99.90
16625;DHT22;8426;48.496;9.098;2023-07-28T15:10:56;24.20;99.90
16625;DHT22;8426;48.496;9.098;2023-07-28T15:16:00;23.90;99.90
16625;DHT22;8426;48.496;9.098;2023-07-28T15:21:05;24.20;99.90
16625;DHT22;8426;48.496;9.098;2023-07-28T15:26:08;24.40;99.90
16625;DHT22;8426;48.496;9.098;2023-07-28T15:31:11;24.00;99.90
16625;DHT22;8426;48.496;9.098;2023-07-28T15:36:17;23.60;99.90
16625;DHT22;8426;48.496;9.098;2023-07-28T15:41:20;23.30;99.90
16625;DHT22;8426;48.496;9.098;2023-07-28T15:46:23;22.90;99.90
16625;DHT22;8426;48.496;9.098;2023-07-28T15:51:28;22.60;99.90
16625;DHT22;8426;48.496;9.098;2023-07-28T15:56:31;22.30;99.90
16625;DHT22;8426;48.496;9.098;2023-07-28T16:01:35;22.10;99.90
16625;DHT22;8426;48.496;9.098;2023-07-28T16:06:40;22.30;99.90
16625;DHT22;8426;48.496;9.098;2023-07-28T16:11:44;22.30;99.90
16625;DHT22;8426;48.496;9.098;2023-07-28T16:16:47;22.10;99.90
16625;DHT22;8426;48.496;9.098;2023-07-28T16:21:52;21.90;99.90
16625;DHT22;8426;48.496;9.098;2023-07-28T16:26:59;21.70;99.90
16625;DHT22;8426;48.496;9.098;2023-07-28T16:32:03;21.40;99.90
16625;DHT22;8426;48.496;9.098;2023-07-28T16:37:10;21.30;99.90
16625;DHT22;8426;48.496;9.098;2023-07-28T16:42:13;21.20;99.90
16625;DHT22;8426;48.496;9.098;2023-07-28T16:47:17;21.00;99.90
16625;DHT22;8426;48.496;9.098;2023-07-28T16:52:22;21.00;99.90
16625;DHT22;8426;48.496;9.098;2023-07-28T16:57:26;21.10;99.90
16625;DHT22;8426;48.496;9.098;2023-07-28T17:02:30;21.20;99.90
16625;DHT22;8426;48.496;9.098;2023-07-28T17:07:35;21.10;99.90
16625;DHT22;8426;48.496;9.098;2023-07-28T17:12:38;21.00;99.90
16625;DHT22;8426;48.496;9.098;2023-07-28T17:17:41;20.90;99.90
16625;DHT22;8426;48.496;9.098;2023-07-28T17:22:46;20.80;99.90
16625;DHT22;8426;48.496;9.098;2023-07-28T17:27:49;20.80;99.90
16625;DHT22;8426;48.496;9.098;2023-07-28T17:32:53;20.50;99.90
16625;DHT22;8426;48.496;9.098;2023-07-28T17:37:58;20.20;99.90
16625;DHT22;8426;48.496;9.098;2023-07-28T17:43:02;20.10;99.90
16625;DHT22;8426;48.496;9.098;2023-07-28T17:48:06;19.90;99.90
16625;DHT22;8426;48.496;9.098;2023-07-28T17:53:12;19.50;99.90
16625;DHT22;8426;48.496;9.098;2023-07-28T17:58:15;19.00;99.90
16625;DHT22;8426;48.496;9.098;2023-07-28T18:03:18;18.80;99.90
16625;DHT22;8426;48.496;9.098;2023-07-28T18:08:24;18.80;99.90
16625;DHT22;8426;48.496;9.098;2023-07-28T18:13:28;18.80;99.90
16625;DHT22;8426;48.496;9.098;2023-07-28T18:18:31;18.80;99.90
16625;DHT22;8426;48.496;9.098;2023-07-28T18:23:35;18.70;99.90
16625;DHT22;8426;48.496;9.098;2023-07-28T18:28:39;18.50;99.90
16625;DHT22;8426;48.496;9.098;2023-07-28T18:33:42;18.50;99.90
16625;DHT22;8426;48.496;9.098;2023-07-28T18:38:47;18.40;99.90
16625;DHT22;8426;48.496;9.098;2023-07-28T18:43:50;18.40;99.90
16625;DHT22;8426;48.496;9.098;2023-07-28T18:48:53;18.40;99.90
16625;DHT22;8426;48.496;9.098;2023-07-28T18:53:58;18.30;99.90
16625;DHT22;8426;48.496;9.098;2023-07-28T18:59:01;18.20;99.90
16625;DHT22;8426;48.496;9.098;2023-07-28T19:04:05;18.20;99.90
16625;DHT22;8426;48.496;9.098;2023-07-28T19:09:09;18.00;99.90
16625;DHT22;8426;48.496;9.098;2023-07-28T19:14:13;17.70;99.90
16625;DHT22;8426;48.496;9.098;2023-07-28T19:19:16;17.50;99.90
16625;DHT22;8426;48.496;9.098;2023-07-28T19:24:21;17.50;99.90
16625;DHT22;8426;48.496;9.098;2023-07-28T19:29:26;17.40;99.90
16625;DHT22;8426;48.496;9.098;2023-07-28T19:34:30;17.20;99.90
16625;DHT22;8426;48.496;9.098;2023-07-28T19:39:35;17.20;99.90
16625;DHT22;8426;48.496;9.098;2023-07-28T19:44:38;17.20;99.90
16625;DHT22;8426;48.496;9.098;2023-07-28T19:49:43;17.30;99.90
16625;DHT22;8426;48.496;9.098;2023-07-28T19:54:57;17.40;99.90
16625;DHT22;8426;48.496;9.098;2023-07-28T20:00:01;17.40;99.90
16625;DHT22;8426;48.496;9.098;2023-07-28T20:05:06;17.40;99.90
16625;DHT22;8426;48.496;9.098;2023-07-28T20:10:11;17.30;99.90
16625;DHT22;8426;48.496;9.098;2023-07-28T20:15:14;17.20;99.90
16625;DHT22;8426;48.496;9.098;2023-07-28T20:20:18;17.10;99.90
16625;DHT22;8426;48.496;9.098;2023-07-28T20:25:23;17.10;99.90
16625;DHT22;8426;48.496;9.098;2023-07-28T20:30:27;17.10;99.90
16625;DHT22;8426;48.496;9.098;2023-07-28T20:35:30;17.00;99.90
16625;DHT22;8426;48.496;9.098;2023-07-28T20:40:36;17.10;99.90
16625;DHT22;8426;48.496;9.098;2023-07-28T20:45:39;17.20;99.90
16625;DHT22;8426;48.496;9.098;2023-07-28T20:50:42;17.20;99.90
16625;DHT22;8426;48.496;9.098;2023-07-28T20:55:47;17.20;99.90
16625;DHT22;8426;48.496;9.098;2023-07-28T21:00:51;17.10;99.90
16625;DHT22;8426;48.496;9.098;2023-07-28T21:05:54;17.00;99.90
16625;DHT22;8426;48.496;9.098;2023-07-28T21:10:59;16.90;99.90
16625;DHT22;8426;48.496;9.098;2023-07-28T21:16:03;16.90;99.90
16625;DHT22;8426;48.496;9.098;2023-07-28T21:21:07;16.90;99.90
16625;DHT22;8426;48.496;9.098;2023-07-28T21:26:12;16.90;99.90
16625;DHT22;8426;48.496;9.098;2023-07-28T21:31:15;16.90;99.90
16625;DHT22;8426;48.496;9.098;2023-07-28T21:36:20;16.90;99.90
16625;DHT22;8426;48.496;9.098;2023-07-28T21:41:24;17.00;99.90
16625;DHT22;8426;48.496;9.098;2023-07-28T21:46:28;17.00;99.90
16625;DHT22;8426;48.496;9.098;2023-07-28T21:51:31;17.00;99.90
16625;DHT22;8426;48.496;9.098;2023-07-28T21:56:36;17.00;99.90
16625;DHT22;8426;48.496;9.098;2023-07-28T22:01:39;16.90;99.90
16625;DHT22;8426;48.496;9.098;2023-07-28T22:06:42;16.80;99.90
16625;DHT22;8426;48.496;9.098;2023-07-28T22:11:47;16.70;99.90
16625;DHT22;8426;48.496;9.098;2023-07-28T22:16:50;16.70;99.90
16625;DHT22;8426;48.496;9.098;2023-07-28T22:21:53;16.80;99.90
16625;DHT22;8426;48.496;9.098;2023-07-28T22:26:59;16.80;99.90
16625;DHT22;8426;48.496;9.098;2023-07-28T22:32:03;16.80;99.90
16625;DHT22;8426;48.496;9.098;2023-07-28T22:37:06;16.80;99.90
16625;DHT22;8426;48.496;9.098;2023-07-28T22:42:11;16.70;99.90
16625;DHT22;8426;48.496;9.098;2023-07-28T22:47:14;16.70;99.90
16625;DHT22;8426;48.496;9.098;2023-07-28T22:52:17;16.70;99.90
16625;DHT22;8426;48.496;9.098;2023-07-28T22:57:24;16.70;99.90
16625;DHT22;8426;48.496;9.098;2023-07-28T23:02:27;16.70;99.90
16625;DHT22;8426;48.496;9.098;2023-07-28T23:07:31;16.70;99.90
16625;DHT22;8426;48.496;9.098;2023-07-28T23:12:36;16.60;99.90
16625;DHT22;8426;48.496;9.098;2023-07-28T23:17:39;16.40;99.90
16625;DHT22;8426;48.496;9.098;2023-07-28T23:22:43;16.20;99.90
16625;DHT22;8426;48.496;9.098;2023-07-28T23:27:48;16.00;99.90
16625;DHT22;8426;48.496;9.098;2023-07-28T23:32:51;15.80;99.90
16625;DHT22;8426;48.496;9.098;2023-07-28T23:37:55;15.70;99.90
16625;DHT22;8426;48.496;9.098;2023-07-28T23:42:59;15.60;99.90
16625;DHT22;8426;48.496;9.098;2023-07-28T23:48:03;15.60;99.90
16625;DHT22;8426;48.496;9.098;2023-07-28T23:53:07;15.70;99.90
16625;DHT22;8426;48.496;9.098;2023-07-28T23:58:12;15.80;99.90
